Accueil
METAR-TAF:

METAR-TAF

Aéroports :

Cassel, Allemagne

latitude: 51-24N, longitude: 009-23E, altitude: 277 m

Observation

Le bulletin a été fait il y a 14 minutes, à 09:50 UTC
Vent 4 kt de direction variable
Température 10°C
Humidité 50%
Pression 1013 hPa
Visibilité 10 km ou plus
Nuages épars à une hauteur de 3500 ft

METAR: EDVK 280950Z VRB04KT 9999 SCT035 10/00 Q1013

Heure: 12:04 (10:04 UTC)

Prévision

Le bulletin a été fait il y a 2 heures et 4 minutes, à 08:00 UTC
Prévision valable du 28 à 09 UTC au 28 à 18 UTC
Vent 3 kt de direction variable
Visibilité 10 km ou plus
Quelques nuages à une hauteur de 4000 ft
Evoluant progressivement
du 28 à 09 UTC au 28 à 10 UTC
Vent 6 kt de ouest/nord-ouest
Probabilité 30% :
Temporairement
du 28 à 16 UTC au 28 à 18 UTC
Nuages épars à une hauteur de 3000 ft, Cumulus congestus.
averses de pluie

TAF: EDVK 280800Z 2809/2818 VRB03KT 9999 FEW040 BECMG 2809/2810 29006KT PROB30 TEMPO 2816/2818 SHRA SCT030TCU

Observations et prévisions météorologiques de plus de 4000 aéroports (messages METAR et TAF).

Les stations disponibles sont représentées par des disques jaunes et rouges sur la carte.

Passer la souris dessus pour voir le nom de la station.

Cliquer dessus pour voir les observations et prévisions météorologiques.

Pour changer de carte: cliquez sur les boutons verts avec une croix noire pour zoomer, sur le bouton vert avec un tiret pour effectuer un zoom arrière, ou sur les flèches vertes pour les cartes adjacentes.


METAR-TAF: